createdAt,value
2018-02-18T00:01:53.448Z,71.40
2018-02-18T00:02:53.432Z,75.10
2018-02-18T00:03:54.175Z,74.80
2018-02-18T00:04:53.616Z,75.50
2018-02-18T00:05:53.557Z,80.00
2018-02-18T00:06:54.510Z,76.80
2018-02-18T00:07:55.888Z,79.10
2018-02-18T00:08:53.373Z,76.00
2018-02-18T00:09:53.363Z,78.80
2018-02-18T00:10:53.351Z,74.50
2018-02-18T00:11:53.343Z,77.10
2018-02-18T00:12:55.790Z,77.20
2018-02-18T00:13:53.824Z,74.30
2018-02-18T00:14:53.360Z,75.80
2018-02-18T00:15:55.165Z,76.90
2018-02-18T00:16:53.290Z,75.70
2018-02-18T00:17:54.884Z,80.50
2018-02-18T00:18:56.972Z,78.90
2018-02-18T00:19:54.354Z,79.00
2018-02-18T00:20:57.144Z,76.00
2018-02-18T00:22:01.147Z,76.70
2018-02-18T00:22:58.230Z,78.40
2018-02-18T00:23:53.630Z,75.40
2018-02-18T00:24:53.355Z,78.50
2018-02-18T00:25:53.195Z,73.60
2018-02-18T00:26:53.183Z,79.70
2018-02-18T00:27:53.177Z,74.40
2018-02-18T00:28:53.160Z,75.10
2018-02-18T00:29:53.151Z,74.00
2018-02-18T00:30:53.448Z,73.90
2018-02-18T00:31:53.532Z,75.40
2018-02-18T00:32:53.116Z,79.70
2018-02-18T00:33:53.107Z,75.90
2018-02-18T00:34:53.100Z,73.90
2018-02-18T00:35:53.088Z,79.00
2018-02-18T00:36:53.321Z,78.00
2018-02-18T00:37:53.066Z,74.70
2018-02-18T00:38:53.055Z,72.40
2018-02-18T00:39:53.042Z,73.20
2018-02-18T00:40:53.033Z,74.50
2018-02-18T00:41:53.025Z,75.40
2018-02-18T00:42:53.265Z,73.90
2018-02-18T00:43:53.005Z,78.30
2018-02-18T00:44:52.989Z,73.20
2018-02-18T00:45:52.983Z,75.90
2018-02-18T00:46:52.969Z,77.30
2018-02-18T00:47:52.962Z,83.40
2018-02-18T00:48:53.199Z,70.90
2018-02-18T00:49:52.936Z,74.00
2018-02-18T00:50:52.924Z,75.00
2018-02-18T00:51:52.913Z,72.80
2018-02-18T00:52:52.948Z,77.50
2018-02-18T00:53:52.895Z,76.00
2018-02-18T00:54:53.136Z,73.70
2018-02-18T00:55:52.868Z,74.80
2018-02-18T00:56:52.907Z,74.90
2018-02-18T00:57:52.852Z,74.20
2018-02-18T00:58:52.841Z,74.10
2018-02-18T00:59:52.827Z,72.60
2018-02-18T01:00:53.066Z,74.40
2018-02-18T01:01:52.808Z,75.10
2018-02-18T01:02:52.791Z,70.40
2018-02-18T01:03:52.790Z,76.40
2018-02-18T01:04:52.774Z,72.20
2018-02-18T01:05:52.761Z,70.20
2018-02-18T01:06:53.101Z,73.10
2018-02-18T01:07:52.740Z,74.20
2018-02-18T01:08:52.730Z,78.70
2018-02-18T01:09:52.718Z,76.10
2018-02-18T01:10:52.713Z,71.00
2018-02-18T01:11:52.696Z,72.10
2018-02-18T01:12:52.934Z,79.10
2018-02-18T01:13:52.677Z,79.90
2018-02-18T01:14:52.665Z,77.20
2018-02-18T01:15:52.654Z,70.90
2018-02-18T01:16:52.641Z,74.40
2018-02-18T01:17:52.627Z,73.00
2018-02-18T01:18:52.867Z,73.90
2018-02-18T01:19:52.610Z,69.90
2018-02-18T01:20:52.610Z,73.60
2018-02-18T01:21:52.584Z,77.70
2018-02-18T01:22:52.585Z,74.20
2018-02-18T01:23:52.575Z,79.20
2018-02-18T01:24:52.905Z,78.80
2018-02-18T01:25:52.545Z,76.80
2018-02-18T01:26:52.537Z,78.90
2018-02-18T01:27:52.522Z,75.80
2018-02-18T01:28:52.562Z,76.00
2018-02-18T01:29:52.503Z,70.00
2018-02-18T01:30:52.738Z,78.20
2018-02-18T01:31:52.480Z,76.90
2018-02-18T01:32:52.468Z,75.90
2018-02-18T01:33:52.458Z,76.50
2018-02-18T01:34:52.443Z,77.30
2018-02-18T01:35:52.437Z,81.40
2018-02-18T01:36:52.679Z,74.80
2018-02-18T01:37:52.413Z,72.50
2018-02-18T01:38:52.399Z,73.90
2018-02-18T01:39:52.393Z,71.70
2018-02-18T01:40:52.376Z,74.30
2018-02-18T01:41:52.369Z,71.10
2018-02-18T01:42:52.608Z,76.60
2018-02-18T01:43:52.347Z,72.00
2018-02-18T01:44:52.337Z,72.30
2018-02-18T01:45:52.328Z,70.10
2018-02-18T01:46:52.320Z,77.90
2018-02-18T01:47:52.304Z,72.80
2018-02-18T01:48:52.290Z,76.10
2018-02-18T01:49:52.283Z,70.60
2018-02-18T01:50:52.266Z,70.50
2018-02-18T01:51:52.260Z,71.20
2018-02-18T01:52:52.249Z,73.50
2018-02-18T01:53:52.232Z,75.30
2018-02-18T01:54:52.472Z,75.20
2018-02-18T01:55:52.214Z,77.90
2018-02-18T01:56:52.205Z,74.40
2018-02-18T01:57:52.196Z,72.40
2018-02-18T01:58:52.184Z,71.90
2018-02-18T01:59:52.173Z,74.10
2018-02-18T02:00:52.157Z,76.40
2018-02-18T02:01:52.156Z,77.80
2018-02-18T02:02:52.142Z,73.60
2018-02-18T02:03:52.131Z,73.20
2018-02-18T02:04:52.117Z,70.40
2018-02-18T02:05:52.104Z,74.60
2018-02-18T02:06:52.343Z,74.40
2018-02-18T02:07:52.081Z,75.60
2018-02-18T02:08:52.070Z,73.70
2018-02-18T02:09:52.062Z,71.50
2018-02-18T02:10:52.056Z,71.90
2018-02-18T02:11:52.038Z,75.60
2018-02-18T02:12:52.034Z,69.40
2018-02-18T02:13:52.018Z,73.30
2018-02-18T02:14:52.005Z,74.60
2018-02-18T02:15:51.998Z,73.30
2018-02-18T02:16:51.989Z,70.40
2018-02-18T02:17:51.969Z,73.40
2018-02-18T02:18:52.066Z,74.30
2018-02-18T02:19:51.945Z,74.80
2018-02-18T02:20:51.938Z,76.00
2018-02-18T02:21:51.927Z,73.90
2018-02-18T02:22:51.920Z,71.80
2018-02-18T02:23:51.906Z,74.00
2018-02-18T02:24:51.890Z,77.20
2018-02-18T02:25:51.887Z,73.40
2018-02-18T02:26:51.870Z,75.10
2018-02-18T02:27:51.864Z,66.80
2018-02-18T02:28:51.849Z,71.00
2018-02-18T02:29:51.837Z,75.50
2018-02-18T02:30:51.824Z,73.50
2018-02-18T02:31:51.814Z,72.70
2018-02-18T02:32:51.809Z,78.10
2018-02-18T02:33:51.788Z,78.80
2018-02-18T02:34:51.781Z,75.60
2018-02-18T02:35:51.770Z,68.60
2018-02-18T02:36:51.860Z,72.60
2018-02-18T02:37:51.748Z,75.10
2018-02-18T02:38:51.736Z,77.60
2018-02-18T02:39:51.722Z,73.10
2018-02-18T02:40:51.712Z,74.40
2018-02-18T02:41:51.704Z,64.90
2018-02-18T02:42:51.692Z,74.80
2018-02-18T02:43:51.680Z,73.30
2018-02-18T02:44:51.668Z,68.60
2018-02-18T02:45:51.660Z,68.70
2018-02-18T02:46:51.642Z,68.10
2018-02-18T02:47:51.635Z,73.80
2018-02-18T02:48:51.625Z,72.50
2018-02-18T02:49:51.611Z,68.30
2018-02-18T02:50:51.599Z,76.60
2018-02-18T02:51:51.602Z,70.30
2018-02-18T02:52:51.570Z,68.40
2018-02-18T02:53:51.567Z,74.00
2018-02-18T02:54:51.551Z,71.60
2018-02-18T02:55:51.541Z,66.60
2018-02-18T02:56:51.525Z,67.30
2018-02-18T02:57:51.520Z,68.70
2018-02-18T02:58:51.511Z,72.90
2018-02-18T02:59:51.496Z,68.40
2018-02-18T03:00:51.484Z,71.50
2018-02-18T03:01:51.472Z,70.90
2018-02-18T03:02:51.459Z,71.30
2018-02-18T03:03:51.449Z,65.70
2018-02-18T03:04:51.442Z,65.60
2018-02-18T03:05:51.421Z,70.30
2018-02-18T03:06:51.409Z,64.40
2018-02-18T03:07:51.401Z,64.50
2018-02-18T03:08:51.389Z,68.30
2018-02-18T03:09:51.380Z,62.10
2018-02-18T03:10:51.369Z,62.80
2018-02-18T03:11:51.351Z,63.90
2018-02-18T03:12:51.339Z,64.80
2018-02-18T03:13:51.332Z,69.50
2018-02-18T03:14:51.326Z,74.10
2018-02-18T03:15:51.315Z,66.30
2018-02-18T03:16:51.299Z,68.60
2018-02-18T03:17:51.287Z,68.80
2018-02-18T03:18:51.272Z,65.90
2018-02-18T03:19:51.266Z,72.50
2018-02-18T03:20:51.256Z,65.80
2018-02-18T03:21:51.235Z,66.40
2018-02-18T03:22:51.228Z,68.30
2018-02-18T03:23:51.215Z,64.60
2018-02-18T03:24:51.203Z,68.60
2018-02-18T03:25:51.195Z,65.40
2018-02-18T03:26:51.186Z,67.50
2018-02-18T03:27:51.170Z,64.90
2018-02-18T03:28:51.153Z,69.10
2018-02-18T03:29:51.146Z,73.10
2018-02-18T03:30:51.136Z,71.00
2018-02-18T03:31:51.123Z,66.70
2018-02-18T03:32:51.115Z,68.80
2018-02-18T03:33:51.094Z,61.90
2018-02-18T03:34:51.083Z,66.00
2018-02-18T03:35:51.082Z,63.10
2018-02-18T03:36:51.067Z,70.70
2018-02-18T03:37:51.052Z,65.80
2018-02-18T03:38:51.037Z,65.90
2018-02-18T03:39:51.027Z,64.20
2018-02-18T03:40:51.016Z,67.80
2018-02-18T03:41:51.004Z,66.20
2018-02-18T03:42:51.297Z,63.30
2018-02-18T03:43:50.976Z,66.60
2018-02-18T03:44:50.963Z,64.20
2018-02-18T03:45:50.962Z,65.00
2018-02-18T03:46:50.948Z,64.30
2018-02-18T03:47:50.938Z,65.60
2018-02-18T03:48:50.925Z,60.20
2018-02-18T03:49:50.908Z,66.30
2018-02-18T03:50:50.895Z,64.90
2018-02-18T03:51:50.891Z,60.60
2018-02-18T03:52:50.873Z,66.90
2018-02-18T03:53:50.862Z,61.40
2018-02-18T03:54:50.844Z,63.50
2018-02-18T03:55:50.835Z,63.20
2018-02-18T03:56:50.825Z,59.60
2018-02-18T03:57:50.818Z,59.00
2018-02-18T03:58:50.803Z,64.80
2018-02-18T03:59:50.788Z,59.10
2018-02-18T04:00:50.776Z,62.80
2018-02-18T04:01:50.768Z,66.30
2018-02-18T04:02:50.760Z,62.60
2018-02-18T04:03:50.742Z,65.80
2018-02-18T04:04:50.743Z,61.70
2018-02-18T04:05:50.721Z,63.50
2018-02-18T04:06:50.702Z,62.10
2018-02-18T04:07:50.695Z,60.00
2018-02-18T04:08:50.686Z,60.10
2018-02-18T04:09:50.684Z,61.50
2018-02-18T04:10:50.659Z,61.10
2018-02-18T04:11:50.648Z,62.30
2018-02-18T04:12:50.633Z,60.70
2018-02-18T04:13:50.621Z,60.20
2018-02-18T04:14:50.608Z,60.60
2018-02-18T04:15:50.602Z,61.10
2018-02-18T04:16:50.590Z,59.30
2018-02-18T04:17:50.569Z,61.10
2018-02-18T04:18:50.562Z,55.00
2018-02-18T04:19:50.548Z,63.50
2018-02-18T04:20:50.569Z,58.40
2018-02-18T04:21:50.531Z,57.70
2018-02-18T04:22:50.515Z,58.70
2018-02-18T04:23:50.496Z,55.80
2018-02-18T04:24:50.489Z,60.10
2018-02-18T04:25:50.475Z,59.20
2018-02-18T04:26:50.465Z,58.40
2018-02-18T04:27:50.458Z,58.80
2018-02-18T04:28:50.441Z,55.90
2018-02-18T04:29:50.429Z,58.00
2018-02-18T04:30:50.418Z,62.40
2018-02-18T04:31:50.404Z,59.20
2018-02-18T04:32:50.394Z,60.80
2018-02-18T04:33:50.379Z,57.70
2018-02-18T04:34:50.366Z,60.50
2018-02-18T04:35:50.351Z,63.70
2018-02-18T04:36:50.340Z,60.50
2018-02-18T04:37:50.329Z,58.50
2018-02-18T04:38:50.316Z,62.40
2018-02-18T04:39:50.302Z,58.80
2018-02-18T04:40:50.291Z,59.40
2018-02-18T04:41:50.282Z,61.50
2018-02-18T04:42:50.269Z,61.90
2018-02-18T04:43:50.255Z,58.20
2018-02-18T04:44:50.242Z,60.10
2018-02-18T04:45:50.229Z,60.00
2018-02-18T04:46:50.216Z,60.20
2018-02-18T04:47:50.207Z,60.50
2018-02-18T04:48:50.196Z,63.40
2018-02-18T04:49:50.182Z,61.70
2018-02-18T04:50:50.169Z,61.70
2018-02-18T04:51:50.155Z,61.60
2018-02-18T04:52:50.144Z,63.10
2018-02-18T04:53:50.134Z,66.10
2018-02-18T04:54:50.125Z,61.50
2018-02-18T04:55:50.103Z,63.30
2018-02-18T04:56:50.093Z,63.20
2018-02-18T04:57:50.088Z,60.60
2018-02-18T04:58:50.073Z,57.90
2018-02-18T04:59:50.062Z,59.40
2018-02-18T05:00:50.046Z,61.30
2018-02-18T05:01:50.030Z,62.30
2018-02-18T05:02:50.019Z,61.80
2018-02-18T05:03:50.013Z,61.10
2018-02-18T05:04:50.002Z,60.00
2018-02-18T05:05:49.982Z,60.80
2018-02-18T05:06:49.968Z,58.30
2018-02-18T05:07:50.027Z,58.10
2018-02-18T05:08:49.941Z,58.40
2018-02-18T05:09:49.935Z,60.90
2018-02-18T05:10:49.925Z,57.50
2018-02-18T05:11:49.909Z,60.60
2018-02-18T05:12:49.898Z,62.00
2018-02-18T05:13:49.888Z,57.90
2018-02-18T05:14:49.880Z,60.10
2018-02-18T05:15:49.861Z,60.80
2018-02-18T05:16:49.856Z,57.70
2018-02-18T05:17:49.833Z,59.30
2018-02-18T05:18:49.823Z,58.80
2018-02-18T05:19:49.824Z,58.90
2018-02-18T05:20:49.800Z,54.50
2018-02-18T05:21:49.785Z,56.10
2018-02-18T05:22:49.778Z,56.20
2018-02-18T05:23:49.759Z,58.20
2018-02-18T05:24:49.766Z,60.60
2018-02-18T05:25:49.744Z,59.20
2018-02-18T05:26:49.729Z,58.70
2018-02-18T05:27:49.712Z,60.40
2018-02-18T05:28:49.703Z,60.40
2018-02-18T05:29:49.694Z,64.20
2018-02-18T05:30:49.684Z,59.90
2018-02-18T05:31:49.670Z,60.50
2018-02-18T05:32:49.656Z,61.20
2018-02-18T05:33:49.644Z,59.70
2018-02-18T05:34:49.628Z,61.00
2018-02-18T05:35:49.621Z,61.80
2018-02-18T05:36:49.605Z,57.60
2018-02-18T05:37:49.591Z,60.50
2018-02-18T05:38:49.580Z,58.80
2018-02-18T05:39:49.564Z,66.90
2018-02-18T05:40:49.580Z,62.10
2018-02-18T05:41:49.542Z,62.60
2018-02-18T05:42:49.530Z,61.90
2018-02-18T05:43:49.515Z,58.70
2018-02-18T05:44:49.499Z,60.10
2018-02-18T05:45:49.493Z,59.50
2018-02-18T05:46:49.485Z,61.20
2018-02-18T05:47:49.471Z,57.40
2018-02-18T05:48:49.460Z,59.60
2018-02-18T05:49:49.441Z,62.60
2018-02-18T05:50:49.427Z,63.80
2018-02-18T05:51:49.424Z,58.50
2018-02-18T05:52:49.406Z,59.00
2018-02-18T05:53:49.395Z,61.10
2018-02-18T05:54:49.379Z,60.50
2018-02-18T05:55:49.364Z,63.00
2018-02-18T05:56:49.352Z,59.80
2018-02-18T05:57:49.342Z,58.40
2018-02-18T05:58:49.337Z,62.20
2018-02-18T05:59:49.318Z,63.00
2018-02-18T06:00:49.306Z,58.20
2018-02-18T06:01:49.295Z,58.10
2018-02-18T06:02:49.284Z,61.10
2018-02-18T06:03:49.270Z,58.10
2018-02-18T06:04:49.261Z,55.30
2018-02-18T06:05:49.243Z,59.30
2018-02-18T06:06:49.227Z,59.70
2018-02-18T06:07:49.224Z,58.30
2018-02-18T06:08:49.207Z,58.50
2018-02-18T06:09:49.195Z,60.80
2018-02-18T06:10:49.185Z,63.20
2018-02-18T06:11:49.172Z,62.60
2018-02-18T06:12:49.156Z,62.20
2018-02-18T06:13:49.151Z,56.60
2018-02-18T06:14:49.137Z,62.60
2018-02-18T06:15:49.150Z,59.30
2018-02-18T06:16:49.102Z,58.60
2018-02-18T06:17:49.098Z,61.50
2018-02-18T06:18:49.095Z,56.80
2018-02-18T06:19:49.073Z,59.30
2018-02-18T06:20:49.060Z,56.40
2018-02-18T06:21:49.043Z,56.80
2018-02-18T06:22:49.032Z,58.70
2018-02-18T06:23:49.020Z,56.90
2018-02-18T06:24:49.008Z,52.50
2018-02-18T06:25:48.998Z,60.60
2018-02-18T06:26:48.987Z,57.60
2018-02-18T06:27:48.971Z,58.50
2018-02-18T06:28:48.964Z,56.50
2018-02-18T06:29:48.943Z,56.30
2018-02-18T06:30:48.935Z,55.80
2018-02-18T06:31:48.927Z,53.90
2018-02-18T06:32:48.911Z,56.00
2018-02-18T06:33:48.898Z,54.80
2018-02-18T06:34:48.884Z,57.70
2018-02-18T06:35:48.868Z,62.90
2018-02-18T06:36:48.861Z,58.00
2018-02-18T06:37:48.856Z,56.10
2018-02-18T06:38:48.847Z,55.70
2018-02-18T06:39:48.818Z,53.20
2018-02-18T06:40:48.812Z,53.80
2018-02-18T06:41:48.796Z,57.40
2018-02-18T06:42:48.790Z,56.10
2018-02-18T06:43:48.774Z,54.90
2018-02-18T06:44:48.763Z,54.30
2018-02-18T06:45:48.745Z,54.20
2018-02-18T06:46:48.733Z,59.80
2018-02-18T06:47:48.729Z,56.70
2018-02-18T06:48:48.711Z,56.30
2018-02-18T06:49:48.694Z,54.00
2018-02-18T06:50:48.683Z,54.40
2018-02-18T06:51:48.671Z,51.40
2018-02-18T06:52:48.659Z,52.00
2018-02-18T06:53:48.653Z,53.90
2018-02-18T06:54:48.640Z,52.60
2018-02-18T06:55:48.624Z,52.20
2018-02-18T06:56:48.610Z,52.60
2018-02-18T06:57:48.601Z,52.70
2018-02-18T06:58:48.626Z,56.90
2018-02-18T06:59:48.580Z,51.30
2018-02-18T07:00:48.563Z,53.00
2018-02-18T07:01:48.545Z,53.30
2018-02-18T07:02:48.542Z,53.90
2018-02-18T07:03:48.528Z,56.60
2018-02-18T07:04:48.514Z,56.40
2018-02-18T07:05:48.500Z,56.30
2018-02-18T07:06:48.493Z,55.00
2018-02-18T07:07:48.473Z,53.20
2018-02-18T07:08:48.463Z,50.20
2018-02-18T07:09:48.453Z,47.30
2018-02-18T07:10:48.443Z,48.30
2018-02-18T07:11:48.432Z,53.20
2018-02-18T07:12:48.412Z,48.70
2018-02-18T07:13:48.405Z,50.70
2018-02-18T07:14:48.393Z,49.20
2018-02-18T07:15:48.381Z,50.20
2018-02-18T07:16:48.372Z,51.00
2018-02-18T07:17:48.353Z,46.70
2018-02-18T07:18:48.342Z,48.80
2018-02-18T07:19:48.338Z,47.50
2018-02-18T07:20:48.324Z,53.10
2018-02-18T07:21:48.302Z,50.10
2018-02-18T07:22:48.299Z,48.60
2018-02-18T07:23:48.282Z,49.60
2018-02-18T07:24:48.272Z,49.30
2018-02-18T07:25:48.261Z,50.50
2018-02-18T07:26:48.248Z,49.10
2018-02-18T07:27:48.237Z,49.40
2018-02-18T07:28:48.217Z,50.80
2018-02-18T07:29:48.210Z,45.10
2018-02-18T07:30:51.605Z,47.90
2018-02-18T07:31:48.188Z,51.30
2018-02-18T07:32:48.178Z,48.70
2018-02-18T07:33:48.459Z,46.30
2018-02-18T07:34:49.198Z,48.00
2018-02-18T07:35:48.389Z,43.30
2018-02-18T07:36:48.124Z,42.80
2018-02-18T07:37:48.160Z,45.60
2018-02-18T07:38:48.097Z,44.10
2018-02-18T07:39:48.090Z,43.00
2018-02-18T07:40:48.078Z,43.90
2018-02-18T07:41:52.074Z,45.30
2018-02-18T07:42:48.058Z,42.10
2018-02-18T07:43:48.038Z,41.70
2018-02-18T07:44:48.027Z,45.00
2018-02-18T07:45:48.018Z,42.10
2018-02-18T07:46:48.006Z,44.30
2018-02-18T07:47:47.998Z,44.10
2018-02-18T07:48:47.987Z,42.90
2018-02-18T07:49:47.969Z,42.20
2018-02-18T07:50:47.955Z,42.60
2018-02-18T07:51:47.947Z,41.00
2018-02-18T07:52:47.932Z,39.20
2018-02-18T07:53:47.926Z,39.60
2018-02-18T07:54:47.903Z,42.10
2018-02-18T07:55:47.890Z,41.20
2018-02-18T07:56:47.876Z,41.20
2018-02-18T07:57:47.931Z,40.70
2018-02-18T07:58:47.857Z,35.10
2018-02-18T07:59:47.900Z,39.20
2018-02-18T08:00:47.879Z,38.70
2018-02-18T08:01:47.821Z,39.30
2018-02-18T08:02:47.808Z,41.70
2018-02-18T08:03:47.799Z,38.90
2018-02-18T08:04:47.787Z,37.00
2018-02-18T08:05:47.874Z,38.20
2018-02-18T08:06:47.759Z,40.30
2018-02-18T08:07:47.747Z,37.90
2018-02-18T08:08:47.740Z,39.50
2018-02-18T08:09:47.722Z,39.60
2018-02-18T08:10:47.707Z,40.30
2018-02-18T08:11:47.750Z,43.10
2018-02-18T08:12:47.684Z,40.50
2018-02-18T08:13:47.678Z,41.90
2018-02-18T08:14:47.666Z,40.40
2018-02-18T08:15:47.702Z,40.00
2018-02-18T08:16:47.641Z,36.60
2018-02-18T08:17:47.733Z,40.30
2018-02-18T08:18:47.617Z,38.70
2018-02-18T08:19:47.709Z,43.10
2018-02-18T08:20:47.595Z,37.90
2018-02-18T08:21:47.573Z,36.90
2018-02-18T08:22:47.563Z,37.50
2018-02-18T08:23:47.607Z,39.70
2018-02-18T08:24:47.543Z,38.40
2018-02-18T08:25:47.532Z,42.90
2018-02-18T08:26:47.519Z,38.60
2018-02-18T08:27:47.557Z,37.70
2018-02-18T08:28:47.493Z,40.90
2018-02-18T08:29:47.491Z,35.30
2018-02-18T08:30:47.579Z,36.60
2018-02-18T08:31:47.467Z,35.60
2018-02-18T08:32:47.452Z,32.80
2018-02-18T08:33:47.485Z,35.10
2018-02-18T08:34:47.423Z,36.70
2018-02-18T08:35:47.631Z,36.10
2018-02-18T08:36:47.399Z,35.50
2018-02-18T08:37:47.495Z,37.00
2018-02-18T08:38:47.392Z,35.00
2018-02-18T08:39:47.370Z,37.70
2018-02-18T08:40:47.405Z,40.60
2018-02-18T08:41:47.347Z,34.60
2018-02-18T08:42:47.340Z,35.90
2018-02-18T08:43:47.324Z,39.50
2018-02-18T08:44:47.365Z,35.40
2018-02-18T08:45:47.301Z,32.90
2018-02-18T08:46:47.287Z,38.00
2018-02-18T08:47:47.283Z,35.30
2018-02-18T08:48:47.367Z,37.50
2018-02-18T08:49:47.357Z,34.70
2018-02-18T08:50:47.344Z,39.40
2018-02-18T08:51:47.288Z,34.20
2018-02-18T08:52:47.224Z,37.60
2018-02-18T08:53:47.317Z,33.30
2018-02-18T08:54:47.206Z,36.00
2018-02-18T08:55:47.188Z,36.50
2018-02-18T08:56:47.184Z,34.00
2018-02-18T08:57:47.278Z,36.00
2018-02-18T08:58:47.162Z,33.70
2018-02-18T08:59:47.153Z,35.70
2018-02-18T09:00:47.143Z,33.10
2018-02-18T09:01:47.129Z,32.60
2018-02-18T09:02:47.219Z,35.40
2018-02-18T09:03:47.112Z,35.00
2018-02-18T09:04:47.099Z,35.40
2018-02-18T09:05:47.086Z,31.20
2018-02-18T09:06:47.076Z,34.60
2018-02-18T09:07:47.066Z,33.70
2018-02-18T09:08:47.052Z,32.10
2018-02-18T09:09:47.048Z,31.40
2018-02-18T09:10:47.044Z,33.00
2018-02-18T09:11:47.024Z,30.30
2018-02-18T09:12:47.017Z,33.00
2018-02-18T09:13:47.017Z,34.60
2018-02-18T09:14:47.012Z,33.60
2018-02-18T09:15:46.992Z,33.10
2018-02-18T09:16:46.980Z,33.00
2018-02-18T09:17:46.968Z,30.30
2018-02-18T09:18:46.953Z,32.50
2018-02-18T09:19:46.946Z,31.70
2018-02-18T09:20:46.936Z,31.50
2018-02-18T09:21:46.928Z,30.40
2018-02-18T09:22:46.916Z,33.30
2018-02-18T09:23:46.904Z,32.20
2018-02-18T09:24:46.899Z,30.50
2018-02-18T09:25:46.889Z,30.00
2018-02-18T09:26:46.880Z,32.90
2018-02-18T09:27:46.862Z,30.70
2018-02-18T09:28:46.856Z,29.90
2018-02-18T09:29:46.848Z,31.30
2018-02-18T09:30:46.841Z,31.30
2018-02-18T09:31:46.830Z,30.90
2018-02-18T09:32:46.820Z,31.80
2018-02-18T09:33:46.806Z,33.80
2018-02-18T09:34:46.796Z,34.10
2018-02-18T09:35:46.791Z,33.80
2018-02-18T09:36:46.782Z,28.90
2018-02-18T09:37:46.765Z,31.20
2018-02-18T09:38:46.761Z,31.70
2018-02-18T09:39:46.750Z,30.80
2018-02-18T09:40:46.764Z,30.90
2018-02-18T09:41:46.735Z,32.80
2018-02-18T09:42:46.729Z,29.90
2018-02-18T09:43:46.716Z,30.00
2018-02-18T09:44:46.700Z,29.20
2018-02-18T09:45:46.697Z,28.90
2018-02-18T09:47:29.105Z,31.00
2018-02-18T09:54:21.481Z,29.30
2018-02-18T09:55:21.478Z,31.30
2018-02-18T09:57:13.892Z,27.90
2018-02-18T10:00:44.568Z,28.50
2018-02-18T10:08:04.239Z,27.60
2018-02-18T10:09:04.232Z,27.40
2018-02-18T10:10:04.224Z,29.60
2018-02-18T10:21:24.434Z,30.50
2018-02-18T10:22:20.395Z,24.50
2018-02-18T10:24:02.781Z,24.20
2018-02-18T10:25:02.781Z,29.60
2018-02-18T10:26:02.770Z,27.20
2018-02-18T10:27:02.757Z,28.50
2018-02-18T10:28:02.755Z,28.60
2018-02-18T10:29:02.740Z,29.50
2018-02-18T10:30:02.731Z,32.40
2018-02-18T10:31:02.726Z,28.50
2018-02-18T10:32:02.769Z,32.30
2018-02-18T10:33:02.704Z,28.30
2018-02-18T10:34:02.702Z,28.20
2018-02-18T10:35:02.686Z,28.80
2018-02-18T10:36:02.678Z,27.20
2018-02-18T10:37:02.674Z,27.20
2018-02-18T10:38:02.665Z,25.10
2018-02-18T10:39:02.654Z,28.70
2018-02-18T10:40:02.646Z,29.20
2018-02-18T10:41:02.642Z,28.90
2018-02-18T10:42:02.640Z,28.90
2018-02-18T10:43:02.631Z,26.80
2018-02-18T10:44:02.620Z,25.10
2018-02-18T10:45:03.112Z,26.60
2018-02-18T10:46:02.599Z,28.60
2018-02-18T10:47:02.597Z,27.00
2018-02-18T10:48:02.586Z,30.30
2018-02-18T10:49:02.574Z,28.50
2018-02-18T10:50:02.570Z,26.90
2018-02-18T10:51:02.560Z,29.00
2018-02-18T10:52:02.556Z,28.30
2018-02-18T10:53:03.153Z,29.90
2018-02-18T10:54:02.545Z,28.80
2018-02-18T10:55:03.280Z,28.60
2018-02-18T10:56:02.527Z,26.00
2018-02-18T10:57:02.517Z,29.80
2018-02-18T10:58:02.510Z,23.10
2018-02-18T10:59:02.499Z,26.30
2018-02-18T11:00:03.542Z,25.90
2018-02-18T11:01:02.479Z,27.80
2018-02-18T11:02:02.475Z,26.60
2018-02-18T11:03:02.572Z,29.60
2018-02-18T11:22:47.647Z,27.70
2018-02-18T11:23:47.646Z,30.10
2018-02-18T11:24:47.636Z,20.10
2018-02-18T11:25:50.253Z,22.70
2018-02-18T11:28:22.655Z,25.00
2018-02-18T11:29:22.451Z,19.00
2018-02-18T11:30:22.441Z,25.50
2018-02-18T11:31:22.429Z,29.30
2018-02-18T11:33:59.929Z,27.00
2018-02-18T11:35:03.408Z,29.50
2018-02-18T11:35:59.963Z,28.90
2018-02-18T11:36:59.908Z,26.20
2018-02-18T11:38:03.944Z,25.60
2018-02-18T11:40:34.728Z,28.30
2018-02-18T11:43:07.231Z,27.60
2018-02-18T11:47:20.309Z,26.30
2018-02-18T11:48:20.312Z,26.90
2018-02-18T11:49:20.302Z,27.70
2018-02-18T11:55:40.831Z,29.40
2018-02-18T11:58:45.716Z,28.30
2018-02-18T12:08:18.079Z,26.30
2018-02-18T12:09:57.060Z,27.40
2018-02-18T12:13:47.062Z,27.30
2018-02-18T12:16:19.178Z,27.80
2018-02-18T12:18:06.590Z,28.00
2018-02-18T12:19:06.593Z,26.60
2018-02-18T12:20:06.589Z,25.40
2018-02-18T12:21:07.589Z,25.50
2018-02-18T12:22:06.581Z,24.40
2018-02-18T12:24:04.390Z,24.80
2018-02-18T12:25:04.392Z,25.20
2018-02-18T12:26:04.387Z,25.40
2018-02-18T12:28:04.379Z,24.10
2018-02-18T12:29:04.379Z,23.70
2018-02-18T12:30:04.370Z,24.50
2018-02-18T12:31:04.366Z,24.10
2018-02-18T12:32:07.395Z,26.30
2018-02-18T12:33:05.177Z,27.10
2018-02-18T12:34:04.360Z,24.20
2018-02-18T12:37:02.678Z,22.00
2018-02-18T12:37:59.253Z,27.60
2018-02-18T12:38:59.251Z,23.30
2018-02-18T12:39:59.247Z,23.30
2018-02-18T12:40:59.456Z,23.80
2018-02-18T12:41:59.248Z,24.50
2018-02-18T12:43:01.867Z,24.90
2018-02-18T12:43:59.254Z,23.40
2018-02-18T12:44:59.255Z,25.10
2018-02-18T12:45:59.249Z,23.90
2018-02-18T12:46:59.253Z,26.30
2018-02-18T12:47:59.252Z,23.20
2018-02-18T12:48:59.356Z,22.70
2018-02-18T12:49:59.258Z,24.80
2018-02-18T12:50:59.261Z,21.90
2018-02-18T12:51:59.257Z,23.50
2018-02-18T12:52:59.261Z,24.20
2018-02-18T12:53:59.265Z,24.80
2018-02-18T12:54:59.282Z,26.80
2018-02-18T12:55:59.273Z,21.30
2018-02-18T12:56:59.274Z,23.50
2018-02-18T12:57:59.268Z,25.20
2018-02-18T12:58:59.271Z,24.30
2018-02-18T12:59:59.279Z,24.80
2018-02-18T13:00:59.280Z,23.20
2018-02-18T13:01:59.274Z,23.90
2018-02-18T13:02:59.281Z,25.70
2018-02-18T13:03:59.280Z,24.10
2018-02-18T13:04:59.284Z,24.30
2018-02-18T13:05:59.289Z,22.60
2018-02-18T13:06:59.542Z,21.20
2018-02-18T13:07:59.287Z,25.30
2018-02-18T13:08:59.289Z,23.30
2018-02-18T13:09:59.291Z,24.50
2018-02-18T13:10:59.292Z,24.60
2018-02-18T13:11:59.292Z,25.50
2018-02-18T13:13:41.956Z,26.10
2018-02-18T13:14:41.714Z,24.70
2018-02-18T13:15:41.715Z,24.10
2018-02-18T13:16:41.709Z,22.60
2018-02-18T13:17:41.715Z,24.50
2018-02-18T13:18:41.710Z,23.90
2018-02-18T13:19:41.958Z,24.70
2018-02-18T13:20:41.714Z,24.80
2018-02-18T13:21:41.715Z,24.60
2018-02-18T13:22:41.709Z,23.20
2018-02-18T13:23:41.712Z,22.80
2018-02-18T13:24:41.708Z,24.80
2018-02-18T13:25:41.961Z,23.10
2018-02-18T13:26:41.715Z,23.00
2018-02-18T13:27:41.716Z,24.20
2018-02-18T13:28:41.711Z,22.30
2018-02-18T13:29:41.712Z,22.90
2018-02-18T13:30:41.717Z,18.50
2018-02-18T13:31:42.023Z,19.70
2018-02-18T13:32:41.759Z,19.80
2018-02-18T13:33:41.823Z,21.40
2018-02-18T13:34:41.716Z,18.30
2018-02-18T13:35:41.717Z,19.50
2018-02-18T13:36:41.722Z,18.60
2018-02-18T13:37:42.023Z,18.40
2018-02-18T13:38:41.715Z,19.40
2018-02-18T13:39:41.720Z,18.60
2018-02-18T13:40:41.716Z,20.60
2018-02-18T13:41:41.717Z,19.60
2018-02-18T13:42:41.729Z,19.50
2018-02-18T13:43:42.069Z,20.80
2018-02-18T13:44:41.715Z,15.90
2018-02-18T13:51:45.573Z,18.10
2018-02-18T13:56:06.369Z,19.90
2018-02-18T14:01:45.543Z,17.80
2018-02-18T14:02:45.398Z,18.60
2018-02-18T18:00:29.272Z,36.60
2018-02-18T18:36:32.050Z,37.40
2018-02-18T18:56:39.539Z,35.20
2018-02-18T18:59:29.201Z,36.20
2018-02-18T19:00:26.406Z,35.90
2018-02-18T19:01:24.676Z,35.00
2018-02-18T19:05:24.645Z,37.50
2018-02-18T19:06:24.646Z,35.50
2018-02-18T19:07:24.731Z,37.30
2018-02-18T19:08:24.665Z,35.80
2018-02-18T19:09:24.609Z,37.00
2018-02-18T19:10:25.804Z,34.90
2018-02-18T19:11:24.896Z,37.00
2018-02-18T19:12:24.584Z,38.20
2018-02-18T19:13:24.576Z,37.70
2018-02-18T19:14:24.562Z,37.10
2018-02-18T19:15:24.654Z,38.20
2018-02-18T19:16:25.765Z,37.40
2018-02-18T19:17:24.897Z,36.60
2018-02-18T19:18:31.846Z,36.60
2018-02-18T19:19:25.029Z,36.20
2018-02-18T19:20:33.272Z,34.30
2018-02-18T19:21:24.504Z,33.20
2018-02-18T19:22:24.502Z,33.60
2018-02-18T19:23:24.639Z,33.50
2018-02-18T19:24:24.675Z,36.50
2018-02-18T19:25:24.724Z,35.10